createdAt,value
2018-10-03T00:01:55.856Z,3.50
2018-10-03T00:04:29.882Z,3.53
2018-10-03T00:07:00.787Z,4.03
2018-10-03T00:09:32.439Z,3.47
2018-10-03T00:12:04.194Z,3.20
2018-10-03T00:14:37.291Z,3.50
2018-10-03T00:17:06.962Z,3.40
2018-10-03T00:19:38.066Z,2.90
2018-10-03T00:22:07.949Z,3.27
2018-10-03T00:24:37.550Z,3.83
2018-10-03T00:27:07.054Z,3.57
2018-10-03T00:29:37.549Z,3.40
2018-10-03T00:32:10.677Z,3.37
2018-10-03T00:34:40.774Z,3.77
2018-10-03T00:37:11.670Z,3.27
2018-10-03T00:39:42.794Z,3.97
2018-10-03T00:42:13.930Z,3.87
2018-10-03T00:44:45.326Z,3.93
2018-10-03T00:47:16.133Z,3.10
2018-10-03T00:49:48.074Z,2.63
2018-10-03T00:52:21.549Z,3.60
2018-10-03T00:54:51.357Z,3.40
2018-10-03T00:57:23.026Z,2.87
2018-10-03T00:59:52.861Z,3.03
2018-10-03T01:02:22.562Z,3.20
2018-10-03T01:04:52.129Z,3.40
2018-10-03T01:07:22.930Z,2.07
2018-10-03T01:09:53.730Z,3.13
2018-10-03T01:12:27.636Z,2.57
2018-10-03T01:14:58.490Z,2.97
2018-10-03T01:17:28.229Z,2.80
2018-10-03T01:19:58.893Z,2.60
2018-10-03T01:22:29.726Z,2.63
2018-10-03T01:25:02.730Z,3.50
2018-10-03T01:27:35.686Z,2.97
2018-10-03T01:30:09.661Z,2.90
2018-10-03T01:32:39.433Z,3.57
2018-10-03T01:35:10.105Z,2.97
2018-10-03T01:37:46.661Z,3.53
2018-10-03T01:40:17.629Z,2.83
2018-10-03T01:42:52.113Z,2.80
2018-10-03T01:45:22.001Z,2.47
2018-10-03T01:47:52.797Z,2.67
2018-10-03T01:50:22.701Z,3.10
2018-10-03T01:52:55.670Z,3.17
2018-10-03T01:55:25.549Z,3.03
2018-10-03T01:57:56.421Z,2.80
2018-10-03T02:00:27.567Z,2.53
2018-10-03T02:02:59.393Z,2.73
2018-10-03T02:05:29.361Z,3.17
2018-10-03T02:08:00.389Z,3.60
2018-10-03T02:10:30.689Z,3.10
2018-10-03T02:13:00.365Z,2.77
2018-10-03T02:15:30.233Z,3.23
2018-10-03T02:18:00.205Z,3.13
2018-10-03T02:20:30.141Z,3.20
2018-10-03T02:23:04.645Z,3.53
2018-10-03T02:25:34.578Z,4.07
2018-10-03T02:28:04.317Z,2.53
2018-10-03T02:30:35.101Z,2.97
2018-10-03T02:33:04.709Z,3.87
2018-10-03T02:35:34.557Z,3.53
2018-10-03T02:38:05.177Z,3.27
2018-10-03T02:40:35.809Z,4.17
2018-10-03T02:43:05.574Z,3.77
2018-10-03T02:45:40.561Z,4.20
2018-10-03T02:48:11.458Z,4.90
2018-10-03T02:50:41.649Z,3.83
2018-10-03T02:53:11.501Z,3.57
2018-10-03T02:55:42.386Z,3.40
2018-10-03T02:58:12.225Z,3.10
2018-10-03T03:00:45.974Z,4.40
2018-10-03T03:03:16.834Z,4.27
2018-10-03T03:05:46.777Z,3.97
2018-10-03T03:08:17.697Z,3.73
2018-10-03T03:10:47.561Z,3.87
2018-10-03T03:13:17.830Z,3.40
2018-10-03T03:15:51.025Z,3.93
2018-10-03T03:18:20.898Z,3.20
2018-10-03T03:20:50.566Z,4.00
2018-10-03T03:23:21.330Z,3.67
2018-10-03T03:25:51.978Z,3.40
2018-10-03T03:28:22.785Z,3.33
2018-10-03T03:30:53.361Z,4.07
2018-10-03T03:33:32.973Z,3.90
2018-10-03T03:36:03.790Z,4.27
2018-10-03T03:38:33.718Z,3.93
2018-10-03T03:41:03.509Z,3.53
2018-10-03T03:43:40.113Z,3.70
2018-10-03T03:46:10.001Z,3.30
2018-10-03T03:48:39.921Z,3.50
2018-10-03T03:51:09.812Z,3.70
2018-10-03T03:53:40.677Z,3.43
2018-10-03T03:56:13.678Z,3.87
2018-10-03T03:58:44.245Z,3.63
2018-10-03T04:01:15.366Z,3.33
2018-10-03T04:03:49.210Z,3.80
2018-10-03T04:06:20.034Z,3.60
2018-10-03T04:08:51.721Z,3.00
2018-10-03T04:11:21.290Z,3.47
2018-10-03T04:13:51.073Z,4.30
2018-10-03T04:16:25.675Z,3.50
2018-10-03T04:18:55.586Z,2.83
2018-10-03T04:21:35.209Z,3.03
2018-10-03T04:27:13.342Z,3.97
2018-10-03T04:29:43.149Z,3.87
2018-10-03T04:32:16.609Z,4.30
2018-10-03T04:34:47.535Z,3.80
2018-10-03T04:37:17.398Z,3.63
2018-10-03T04:39:47.316Z,3.30
2018-10-03T04:42:18.165Z,4.67
2018-10-03T04:44:51.090Z,4.03
2018-10-03T04:47:20.930Z,4.40
2018-10-03T04:49:55.265Z,4.80
2018-10-03T04:52:25.949Z,3.93
2018-10-03T04:54:55.781Z,3.57
2018-10-03T04:57:25.605Z,4.83
2018-10-03T04:59:55.429Z,3.60
2018-10-03T05:02:30.005Z,3.80
2018-10-03T05:05:00.843Z,4.10
2018-10-03T05:07:34.346Z,3.87
2018-10-03T05:10:03.987Z,4.60
2018-10-03T05:12:39.433Z,3.90
2018-10-03T05:15:21.333Z,5.13
2018-10-03T05:17:52.945Z,5.73
2018-10-03T05:20:28.443Z,4.30
2018-10-03T05:23:00.245Z,4.63
2018-10-03T05:25:31.903Z,3.90
2018-10-03T05:28:03.626Z,6.00
2018-10-03T05:30:33.521Z,4.30
2018-10-03T05:33:03.121Z,4.43
2018-10-03T05:35:33.921Z,4.40
2018-10-03T05:38:03.564Z,4.97
2018-10-03T05:40:34.434Z,3.97
2018-10-03T05:43:04.297Z,5.10
2018-10-03T05:45:36.189Z,4.70
2018-10-03T05:48:07.038Z,4.43
2018-10-03T05:50:36.905Z,4.40
2018-10-03T05:53:07.725Z,4.27
2018-10-03T05:55:38.613Z,4.50
2018-10-03T05:58:08.481Z,4.47
2018-10-03T06:00:39.112Z,4.57
2018-10-03T06:03:10.737Z,4.40
2018-10-03T06:05:44.383Z,3.90
2018-10-03T06:08:24.846Z,4.03
2018-10-03T06:10:54.421Z,3.97
2018-10-03T06:13:25.155Z,3.33
2018-10-03T06:15:55.025Z,3.90
2018-10-03T06:18:26.844Z,3.80
2018-10-03T06:20:58.496Z,3.80
2018-10-03T06:23:30.257Z,3.50
2018-10-03T06:26:00.073Z,3.67
2018-10-03T06:28:31.729Z,4.40
2018-10-03T06:31:02.225Z,3.73
2018-10-03T06:33:36.600Z,3.27
2018-10-03T06:36:07.233Z,3.43
2018-10-03T06:38:38.941Z,3.40
2018-10-03T06:41:12.477Z,3.30
2018-10-03T06:43:42.345Z,3.50
2018-10-03T06:46:15.685Z,3.23
2018-10-03T06:48:45.553Z,3.27
2018-10-03T06:51:16.396Z,3.00
2018-10-03T06:53:48.025Z,2.80
2018-10-03T06:56:25.469Z,2.83
2018-10-03T06:58:57.211Z,3.07
2018-10-03T07:01:26.993Z,3.70
2018-10-03T07:04:00.801Z,3.13
2018-10-03T07:06:30.631Z,3.33
2018-10-03T07:09:02.477Z,3.50
2018-10-03T07:11:32.085Z,3.20
2018-10-03T07:14:02.843Z,3.30
2018-10-03T07:16:38.065Z,2.47
2018-10-03T07:19:08.801Z,3.60
2018-10-03T07:21:44.961Z,3.47
2018-10-03T07:24:15.781Z,3.13
2018-10-03T07:26:50.153Z,3.57
2018-10-03T07:29:21.958Z,4.10
2018-10-03T07:31:55.857Z,3.80
2018-10-03T07:34:25.668Z,3.80
2018-10-03T07:36:55.281Z,4.00
2018-10-03T07:39:25.067Z,4.63
2018-10-03T07:41:54.708Z,4.57
2018-10-03T07:44:25.246Z,4.20
2018-10-03T07:46:55.993Z,4.50
2018-10-03T07:49:30.404Z,4.40
2018-10-03T07:52:02.253Z,4.50
2018-10-03T07:54:32.117Z,4.70
2018-10-03T07:57:03.001Z,3.70
2018-10-03T07:59:33.621Z,4.40
2018-10-03T08:02:04.077Z,4.37
2018-10-03T08:04:33.577Z,4.73
2018-10-03T08:07:03.122Z,4.33
2018-10-03T08:09:32.681Z,5.20
2018-10-03T08:12:03.277Z,4.30
2018-10-03T08:14:33.024Z,5.00
2018-10-03T08:17:04.019Z,5.10
2018-10-03T08:19:34.701Z,5.50
2018-10-03T08:22:06.268Z,5.60
2018-10-03T08:24:36.157Z,5.70
2018-10-03T08:27:06.053Z,5.30
2018-10-03T08:29:38.841Z,5.87
2018-10-03T08:32:09.414Z,6.97
2018-10-03T08:34:40.930Z,6.10
2018-10-03T08:37:11.733Z,8.07
2018-10-03T08:39:46.090Z,6.73
2018-10-03T08:42:15.814Z,6.30
2018-10-03T08:44:46.638Z,6.53
2018-10-03T08:47:20.418Z,6.40
2018-10-03T08:49:53.599Z,6.37
2018-10-03T08:52:23.829Z,6.10
2018-10-03T08:54:56.973Z,6.43
2018-10-03T08:57:26.752Z,8.10
2018-10-03T08:59:58.626Z,11.27
2018-10-03T09:02:29.226Z,7.43
2018-10-03T09:05:04.109Z,6.17
2018-10-03T09:07:33.782Z,6.13
2018-10-03T09:10:05.337Z,6.03
2018-10-03T09:12:37.925Z,6.33
2018-10-03T09:15:08.557Z,5.17
2018-10-03T09:17:38.389Z,5.70
2018-10-03T09:20:09.237Z,6.87
2018-10-03T09:22:38.893Z,7.07
2018-10-03T09:25:09.421Z,7.27
2018-10-03T09:27:39.973Z,5.80
2018-10-03T09:30:10.847Z,5.63
2018-10-03T09:32:40.836Z,6.50
2018-10-03T09:35:10.653Z,5.53
2018-10-03T09:37:41.433Z,4.70
2018-10-03T09:40:12.113Z,5.30
2018-10-03T09:42:41.717Z,5.37
2018-10-03T09:45:11.621Z,6.30
2018-10-03T09:47:45.705Z,4.63
2018-10-03T09:50:15.321Z,4.43
2018-10-03T09:52:46.850Z,4.90
2018-10-03T09:55:16.609Z,4.73
2018-10-03T09:57:46.496Z,4.67
2018-10-03T10:00:22.735Z,4.50
2018-10-03T10:02:56.237Z,4.57
2018-10-03T10:05:27.129Z,4.20
2018-10-03T10:07:57.929Z,5.77
2018-10-03T10:10:27.769Z,4.40
2018-10-03T10:12:57.724Z,3.97
2018-10-03T10:15:29.625Z,4.00
2018-10-03T10:17:59.425Z,5.07
2018-10-03T10:20:29.021Z,5.40
2018-10-03T10:22:58.768Z,4.70
2018-10-03T10:25:29.377Z,4.67
2018-10-03T10:28:00.089Z,4.30
2018-10-03T10:30:31.991Z,3.87
2018-10-03T10:33:01.613Z,4.67
2018-10-03T10:35:31.113Z,4.10
2018-10-03T10:38:00.661Z,3.57
2018-10-03T10:40:30.315Z,2.93
2018-10-03T10:43:00.696Z,3.90
2018-10-03T10:45:32.565Z,2.90
2018-10-03T10:48:02.180Z,3.13
2018-10-03T10:50:35.040Z,3.13
2018-10-03T10:53:07.025Z,2.57
2018-10-03T10:55:37.929Z,3.00
2018-10-03T10:58:07.965Z,2.47
2018-10-03T11:00:39.869Z,2.80
2018-10-03T11:03:09.436Z,2.37
2018-10-03T11:05:41.029Z,3.03
2018-10-03T11:08:14.793Z,2.77
2018-10-03T11:10:44.415Z,2.60
2018-10-03T11:13:16.177Z,2.60
2018-10-03T11:15:45.973Z,2.43
2018-10-03T11:18:15.561Z,2.70
2018-10-03T11:20:46.123Z,2.60
2018-10-03T11:23:19.321Z,3.10
2018-10-03T11:25:49.129Z,3.03
2018-10-03T11:28:20.748Z,3.50
2018-10-03T11:30:50.509Z,2.80
2018-10-03T11:33:21.347Z,2.50
2018-10-03T11:35:53.223Z,2.63
2018-10-03T11:38:23.828Z,3.20
2018-10-03T11:40:53.535Z,4.20
2018-10-03T11:43:24.341Z,3.67
2018-10-03T11:45:53.944Z,3.80
2018-10-03T11:48:24.682Z,3.70
2018-10-03T11:50:55.305Z,3.00
2018-10-03T11:53:26.613Z,3.23
2018-10-03T11:55:56.272Z,3.50
2018-10-03T11:58:26.805Z,3.63
2018-10-03T12:00:56.621Z,3.67
2018-10-03T12:03:27.606Z,5.30
2018-10-03T12:06:00.127Z,5.07
2018-10-03T12:08:29.825Z,3.87
2018-10-03T12:10:59.671Z,4.07
2018-10-03T12:13:29.481Z,3.57
2018-10-03T12:16:01.337Z,4.00
2018-10-03T12:18:32.432Z,4.37
2018-10-03T12:21:05.572Z,3.73
2018-10-03T12:23:36.780Z,3.80
2018-10-03T12:26:07.780Z,3.87
2018-10-03T12:28:41.005Z,4.20
2018-10-03T12:31:17.520Z,4.53
2018-10-03T12:33:47.401Z,4.10
2018-10-03T12:36:17.128Z,4.00
2018-10-03T12:38:46.718Z,4.90
2018-10-03T12:41:17.460Z,4.90
2018-10-03T12:43:48.284Z,3.93
2018-10-03T12:46:21.988Z,3.23
2018-10-03T12:48:51.852Z,3.53
2018-10-03T12:51:21.740Z,2.90
2018-10-03T12:53:52.592Z,3.60
2018-10-03T12:56:22.289Z,2.97
2018-10-03T12:58:52.288Z,3.30
2018-10-03T13:01:21.946Z,2.67
2018-10-03T13:03:51.772Z,2.90
2018-10-03T13:06:22.936Z,2.60
2018-10-03T13:08:54.620Z,2.23
2018-10-03T13:11:24.444Z,2.43
2018-10-03T13:14:01.040Z,2.50
2018-10-03T13:16:32.853Z,2.50
2018-10-03T13:19:04.548Z,2.90
2018-10-03T13:21:35.322Z,2.40
2018-10-03T13:24:05.165Z,2.70
2018-10-03T13:26:35.071Z,2.60
2018-10-03T13:29:04.872Z,2.97
2018-10-03T13:31:36.748Z,3.10
2018-10-03T13:34:06.578Z,2.40
2018-10-03T13:36:41.717Z,2.90
2018-10-03T13:39:11.252Z,2.20
2018-10-03T13:41:41.005Z,3.30
2018-10-03T13:44:11.809Z,2.67
2018-10-03T13:46:41.689Z,2.50
2018-10-03T13:49:13.636Z,3.00
2018-10-03T13:51:43.673Z,2.60
2018-10-03T13:54:13.322Z,2.90
2018-10-03T13:56:44.064Z,2.80
2018-10-03T13:59:14.885Z,2.90
2018-10-03T14:01:44.744Z,2.60
2018-10-03T14:04:14.492Z,2.00
2018-10-03T14:06:44.316Z,2.43
2018-10-03T14:09:15.161Z,2.70
2018-10-03T14:11:45.693Z,2.40
2018-10-03T14:14:16.483Z,2.20
2018-10-03T14:16:47.037Z,2.10
2018-10-03T14:19:17.797Z,2.50
2018-10-03T14:21:48.641Z,2.30
2018-10-03T14:24:20.506Z,3.20
2018-10-03T14:26:51.305Z,2.90
2018-10-03T14:29:21.117Z,2.23
2018-10-03T14:31:50.960Z,2.50
2018-10-03T14:34:22.821Z,2.40
2018-10-03T14:36:53.625Z,2.10
2018-10-03T14:39:23.456Z,3.00
2018-10-03T14:41:53.245Z,2.60
2018-10-03T14:44:22.867Z,2.30
2018-10-03T14:46:54.613Z,2.20
2018-10-03T14:49:25.448Z,2.30
2018-10-03T14:51:55.269Z,2.20
2018-10-03T14:54:26.085Z,3.07
2018-10-03T14:56:57.881Z,2.43
2018-10-03T14:59:28.704Z,5.30
2018-10-03T15:01:59.592Z,3.40
2018-10-03T15:04:29.568Z,2.87
2018-10-03T15:06:59.397Z,3.53
2018-10-03T15:09:31.005Z,2.63
2018-10-03T15:12:00.544Z,3.60
2018-10-03T15:14:36.317Z,2.87
2018-10-03T15:17:06.969Z,3.70
2018-10-03T15:19:36.737Z,3.50
2018-10-03T15:22:06.840Z,4.00
2018-10-03T15:24:36.660Z,2.63
2018-10-03T15:27:06.913Z,3.37
2018-10-03T15:29:36.871Z,3.07
2018-10-03T15:32:06.574Z,3.73
2018-10-03T15:34:40.484Z,3.07
2018-10-03T15:37:10.780Z,4.17
2018-10-03T15:39:40.633Z,3.43
2018-10-03T15:42:10.591Z,3.03
2018-10-03T15:44:40.373Z,3.07
2018-10-03T15:47:09.996Z,3.30
2018-10-03T15:49:40.713Z,3.50
2018-10-03T15:52:16.056Z,3.03
2018-10-03T15:54:51.533Z,3.20
2018-10-03T15:57:23.152Z,4.10
2018-10-03T15:59:53.912Z,3.30
2018-10-03T16:02:24.504Z,3.40
2018-10-03T16:04:57.296Z,2.90
2018-10-03T16:07:27.140Z,2.97
2018-10-03T16:09:58.760Z,3.67
2018-10-03T16:12:30.193Z,3.00
2018-10-03T16:14:59.684Z,3.30
2018-10-03T16:17:30.452Z,5.40
2018-10-03T16:20:00.048Z,13.60
2018-10-03T16:22:35.284Z,3.73
2018-10-03T16:25:07.071Z,5.70
2018-10-03T16:27:37.666Z,5.17
2018-10-03T16:30:07.197Z,3.90
2018-10-03T16:32:37.065Z,4.33
2018-10-03T16:35:06.961Z,4.00
2018-10-03T16:37:36.825Z,4.67
2018-10-03T16:40:06.768Z,3.57
2018-10-03T16:42:37.457Z,3.83
2018-10-03T16:45:08.304Z,2.87
2018-10-03T16:47:38.103Z,3.13
2018-10-03T16:50:09.817Z,3.90
2018-10-03T16:52:39.608Z,4.27
2018-10-03T16:55:14.449Z,4.10
2018-10-03T16:57:48.805Z,5.03
2018-10-03T17:00:20.502Z,6.60
2018-10-03T17:02:51.218Z,5.07
2018-10-03T17:05:31.289Z,5.73
2018-10-03T17:08:03.113Z,7.70
2018-10-03T17:10:32.668Z,8.67
2018-10-03T17:13:02.432Z,6.20
2018-10-03T17:15:32.205Z,4.90
2018-10-03T17:18:02.124Z,5.00
2018-10-03T17:20:32.072Z,5.40
2018-10-03T17:23:14.804Z,5.33
2018-10-03T17:25:45.574Z,8.47
2018-10-03T17:28:17.440Z,9.60
2018-10-03T17:30:49.124Z,8.70
2018-10-03T17:33:19.933Z,6.47
2018-10-03T17:35:51.856Z,5.67
2018-10-03T17:38:22.564Z,6.27
2018-10-03T17:40:56.920Z,5.60
2018-10-03T17:43:27.667Z,5.30
2018-10-03T17:45:58.544Z,5.07
2018-10-03T17:48:30.508Z,4.53
2018-10-03T17:51:00.184Z,4.60
2018-10-03T17:53:30.052Z,5.20
2018-10-03T17:56:08.343Z,4.83
2018-10-03T17:58:37.916Z,4.70
2018-10-03T18:01:08.751Z,5.57
2018-10-03T18:03:39.560Z,6.10
2018-10-03T18:06:09.160Z,6.43
2018-10-03T18:08:38.652Z,6.77
2018-10-03T18:11:09.404Z,6.60
2018-10-03T18:13:43.701Z,6.60
2018-10-03T18:16:13.557Z,7.80
2018-10-03T18:18:43.693Z,7.10
2018-10-03T18:21:13.704Z,7.13
2018-10-03T18:23:43.370Z,7.10
2018-10-03T18:26:13.881Z,7.73
2018-10-03T18:28:45.420Z,8.83
2018-10-03T18:31:16.515Z,7.80
2018-10-03T18:33:46.096Z,9.43
2018-10-03T18:36:16.881Z,13.07
2018-10-03T18:38:47.972Z,9.10
2018-10-03T18:44:08.688Z,7.70
2018-10-03T18:49:19.888Z,11.63
2018-10-03T18:51:49.583Z,12.83
2018-10-03T18:54:23.822Z,14.03
2018-10-03T18:56:53.720Z,13.00
2018-10-03T18:59:27.082Z,14.10
2018-10-03T19:01:57.784Z,14.07
2018-10-03T19:04:27.780Z,14.73
2018-10-03T19:06:57.972Z,14.80
2018-10-03T19:09:27.656Z,13.97
2018-10-03T19:11:57.506Z,10.73
2018-10-03T19:14:29.348Z,11.13
2018-10-03T19:17:00.028Z,13.60
2018-10-03T19:19:29.724Z,15.80
2018-10-03T19:21:59.404Z,15.60
2018-10-03T19:24:29.196Z,12.50
2018-10-03T19:27:00.020Z,11.47
2018-10-03T19:29:29.896Z,10.57
2018-10-03T19:31:59.620Z,11.80
2018-10-03T19:34:30.544Z,12.00
2018-10-03T19:37:00.175Z,13.13
2018-10-03T19:39:30.028Z,10.03
2018-10-03T19:41:59.704Z,10.23
2018-10-03T19:44:30.595Z,9.70
2018-10-03T19:47:06.248Z,10.50
2018-10-03T19:49:35.920Z,11.30
2018-10-03T19:52:09.581Z,12.90
2018-10-03T19:54:39.240Z,12.87
2018-10-03T19:57:08.892Z,13.23
2018-10-03T19:59:41.783Z,13.03
2018-10-03T20:02:11.432Z,10.40
2018-10-03T20:04:43.303Z,9.23
2018-10-03T20:07:13.175Z,8.70
2018-10-03T20:09:46.871Z,12.13
2018-10-03T20:12:20.903Z,10.90
2018-10-03T20:14:50.448Z,12.80
2018-10-03T20:17:22.040Z,11.67
2018-10-03T20:19:51.655Z,12.47
2018-10-03T20:22:21.252Z,12.05
2018-10-03T20:24:51.068Z,12.10
2018-10-03T20:27:20.989Z,12.53
2018-10-03T20:29:52.955Z,12.53
2018-10-03T20:32:22.731Z,12.50
2018-10-03T20:34:52.648Z,12.20
2018-10-03T20:37:23.480Z,11.83
2018-10-03T20:39:54.568Z,14.25
2018-10-03T20:42:24.484Z,11.23
2018-10-03T20:44:54.360Z,11.30
2018-10-03T20:47:25.198Z,11.33
2018-10-03T20:49:54.774Z,11.20
2018-10-03T20:52:24.604Z,11.70
2018-10-03T20:54:56.232Z,10.33
2018-10-03T20:57:26.996Z,8.33
2018-10-03T20:59:56.604Z,9.70
2018-10-03T21:02:29.289Z,9.03
2018-10-03T21:04:59.861Z,9.88
2018-10-03T21:07:34.704Z,9.20
2018-10-03T21:10:05.568Z,9.20
2018-10-03T21:12:36.641Z,9.53
2018-10-03T21:15:07.572Z,8.30
2018-10-03T21:17:37.316Z,9.03
2018-10-03T21:20:09.141Z,10.03
2018-10-03T21:22:40.111Z,12.18
2018-10-03T21:25:13.565Z,10.40
2018-10-03T21:27:44.380Z,10.60
2018-10-03T21:30:14.329Z,11.20
2018-10-03T21:32:44.224Z,11.20
2018-10-03T21:35:13.931Z,12.37
2018-10-03T21:37:43.724Z,10.40
2018-10-03T21:40:13.551Z,10.17
2018-10-03T21:42:43.116Z,11.97
2018-10-03T21:45:13.668Z,9.53
2018-10-03T21:47:43.665Z,10.53
2018-10-03T21:50:14.336Z,11.20
2018-10-03T21:52:44.368Z,10.43
2018-10-03T21:55:14.032Z,10.40
2018-10-03T21:57:43.880Z,10.20
2018-10-03T22:00:14.704Z,10.10
2018-10-03T22:02:44.632Z,12.47
2018-10-03T22:05:14.516Z,10.07
2018-10-03T22:07:48.352Z,10.00
2018-10-03T22:10:17.987Z,10.20
2018-10-03T22:12:50.820Z,9.07
2018-10-03T22:15:20.788Z,8.50
2018-10-03T22:17:51.132Z,8.90
2018-10-03T22:20:21.981Z,9.23
2018-10-03T22:22:51.842Z,10.00
2018-10-03T22:25:23.700Z,9.20
2018-10-03T22:27:53.596Z,8.18
2018-10-03T22:30:25.462Z,9.28
2018-10-03T22:32:57.296Z,9.40
2018-10-03T22:35:27.908Z,9.70
2018-10-03T22:37:59.437Z,9.40
2018-10-03T22:40:29.344Z,9.83
2018-10-03T22:42:59.929Z,9.77
2018-10-03T22:45:29.520Z,9.58
2018-10-03T22:47:59.024Z,8.50
2018-10-03T22:50:30.360Z,9.00
2018-10-03T22:55:40.251Z,7.30
2018-10-03T22:58:09.853Z,8.50
2018-10-03T23:00:43.252Z,6.93
2018-10-03T23:03:13.352Z,7.83
2018-10-03T23:05:43.200Z,7.57
2018-10-03T23:08:19.896Z,7.80
2018-10-03T23:10:51.840Z,6.37
2018-10-03T23:13:22.720Z,5.73
2018-10-03T23:15:54.632Z,5.10
2018-10-03T23:18:28.768Z,6.33
2018-10-03T23:20:58.452Z,7.03
2018-10-03T23:23:28.035Z,6.07
2018-10-03T23:25:57.595Z,5.90
2018-10-03T23:28:29.235Z,6.67
2018-10-03T23:30:59.047Z,7.43
2018-10-03T23:33:30.159Z,6.20
2018-10-03T23:36:01.792Z,5.87
2018-10-03T23:38:32.316Z,5.50
2018-10-03T23:41:03.883Z,5.67
2018-10-03T23:43:34.394Z,7.00
2018-10-03T23:46:08.072Z,5.97
2018-10-03T23:48:38.940Z,4.87
2018-10-03T23:51:14.231Z,6.30
2018-10-03T23:53:43.807Z,7.00
2018-10-03T23:56:14.842Z,6.00
2018-10-03T23:58:45.724Z,6.60
